TimeMST,TemperatureF,Dew PointF,Humidity,Sea Level PressureIn,VisibilityMPH,Wind Direction,Wind SpeedMPH,Gust SpeedMPH,PrecipitationIn,Events,Conditions,WindDirDegrees,DateUTC
12:15 AM,46.2,33.1,60,30.18,10.0,NNW,11.5,-,N/A,,Clear,330,2013-12-02 07:15:00
12:35 AM,45.5,32.9,61,30.17,10.0,NNW,10.4,-,N/A,,Clear,330,2013-12-02 07:35:00
12:55 AM,44.4,32.9,64,30.16,10.0,NNW,9.2,-,N/A,,Clear,330,2013-12-02 07:55:00
1:15 AM,43.2,32.5,66,30.16,10.0,NNW,9.2,-,N/A,,Clear,330,2013-12-02 08:15:00
1:35 AM,42.3,32.4,68,30.16,10.0,NNW,9.2,-,N/A,,Clear,330,2013-12-02 08:35:00
1:55 AM,42.1,32.2,68,30.15,10.0,NNW,5.8,-,N/A,,Clear,330,2013-12-02 08:55:00
2:15 AM,40.3,32.0,72,30.15,10.0,NW,6.9,-,N/A,,Clear,320,2013-12-02 09:15:00
2:35 AM,40.1,32.0,73,30.14,10.0,WNW,8.1,-,N/A,,Clear,300,2013-12-02 09:35:00
2:55 AM,40.5,32.0,72,30.14,10.0,NW,5.8,-,N/A,,Clear,310,2013-12-02 09:55:00
3:15 AM,38.3,31.8,77,30.13,10.0,West,3.5,-,N/A,,Clear,280,2013-12-02 10:15:00
3:35 AM,36.1,31.1,82,30.12,10.0,WNW,6.9,-,N/A,,Clear,300,2013-12-02 10:35:00
3:55 AM,37.2,31.3,79,30.12,10.0,NW,8.1,-,N/A,,Clear,320,2013-12-02 10:55:00
4:15 AM,37.4,31.5,79,30.12,10.0,NW,8.1,-,N/A,,Clear,320,2013-12-02 11:15:00
4:35 AM,36.9,31.1,80,30.11,10.0,NW,8.1,-,N/A,,Clear,310,2013-12-02 11:35:00
4:55 AM,37.0,30.9,79,30.11,10.0,WNW,4.6,-,N/A,,Clear,300,2013-12-02 11:55:00
5:15 AM,36.1,30.2,79,30.12,10.0,NNW,6.9,-,N/A,,Clear,340,2013-12-02 12:15:00
5:35 AM,37.4,30.2,75,30.12,10.0,NNW,9.2,-,N/A,,Clear,340,2013-12-02 12:35:00
5:55 AM,35.8,29.3,77,30.12,10.0,NW,4.6,-,N/A,,Clear,320,2013-12-02 12:55:00
6:15 AM,34.5,28.4,78,30.12,10.0,NW,8.1,-,N/A,,Clear,310,2013-12-02 13:15:00
6:35 AM,34.9,28.4,77,30.12,10.0,NW,6.9,-,N/A,,Clear,310,2013-12-02 13:35:00
6:55 AM,34.5,27.9,77,30.12,10.0,NW,5.8,-,N/A,,Clear,320,2013-12-02 13:55:00
7:15 AM,34.2,27.9,78,30.12,10.0,NW,8.1,-,N/A,,Clear,320,2013-12-02 14:15:00
7:35 AM,36.3,28.8,74,30.12,10.0,NW,5.8,-,N/A,,Clear,320,2013-12-02 14:35:00
7:55 AM,40.1,29.8,67,30.13,10.0,NNW,3.5,-,N/A,,Clear,340,2013-12-02 14:55:00
8:15 AM,42.6,29.3,59,30.13,10.0,Calm,Calm,-,N/A,,Clear,0,2013-12-02 15:15:00
8:35 AM,40.5,30.2,67,30.13,10.0,Calm,Calm,-,N/A,,Clear,0,2013-12-02 15:35:00
8:55 AM,42.8,30.9,63,30.13,10.0,Calm,Calm,-,N/A,,Clear,0,2013-12-02 15:55:00
9:15 AM,43.7,30.2,59,30.14,10.0,Calm,Calm,-,N/A,,Clear,0,2013-12-02 16:15:00
9:35 AM,46.0,30.0,54,30.14,10.0,East,4.6,-,N/A,,Clear,90,2013-12-02 16:35:00
9:55 AM,47.7,29.1,49,30.13,10.0,ENE,3.5,-,N/A,,Clear,60,2013-12-02 16:55:00
10:15 AM,50.4,28.2,42,30.13,10.0,Calm,Calm,-,N/A,,Clear,0,2013-12-02 17:15:00
10:35 AM,52.0,29.5,42,30.12,10.0,East,4.6,-,N/A,,Clear,90,2013-12-02 17:35:00
10:55 AM,52.0,29.5,42,30.12,10.0,Calm,Calm,-,N/A,,Clear,0,2013-12-02 17:55:00
11:15 AM,54.1,28.4,37,30.11,10.0,Calm,Calm,-,N/A,,Clear,0,2013-12-02 18:15:00
11:35 AM,54.9,26.6,34,30.09,10.0,Calm,Calm,-,N/A,,Clear,0,2013-12-02 18:35:00
11:55 AM,57.0,21.7,26,30.08,10.0,WSW,4.6,-,N/A,,Clear,240,2013-12-02 18:55:00
12:15 PM,57.9,23.7,27,30.07,10.0,Calm,Calm,-,N/A,,Clear,0,2013-12-02 19:15:00
12:35 PM,58.1,25.7,29,30.06,10.0,SW,5.8,-,N/A,,Clear,230,2013-12-02 19:35:00
12:55 PM,59.9,25.3,27,30.05,10.0,SW,5.8,-,N/A,,Clear,220,2013-12-02 19:55:00
1:15 PM,60.8,24.4,25,30.03,10.0,WSW,5.8,-,N/A,,Clear,240,2013-12-02 20:15:00
1:35 PM,62.1,24.6,24,30.02,10.0,WSW,10.4,-,N/A,,Clear,240,2013-12-02 20:35:00
1:55 PM,62.6,23.2,22,30.01,10.0,WSW,8.1,-,N/A,,Clear,240,2013-12-02 20:55:00
2:15 PM,63.1,21.2,20,30.01,10.0,West,8.1,-,N/A,,Clear,280,2013-12-02 21:15:00
2:35 PM,63.1,22.1,21,30.00,10.0,WSW,10.4,-,N/A,,Clear,250,2013-12-02 21:35:00
2:55 PM,63.0,21.9,21,29.99,10.0,WSW,6.9,-,N/A,,Clear,250,2013-12-02 21:55:00
3:15 PM,62.4,22.8,22,29.99,10.0,SW,3.5,-,N/A,,Clear,230,2013-12-02 22:15:00
3:35 PM,63.0,23.0,22,29.98,10.0,West,4.6,-,N/A,,Clear,260,2013-12-02 22:35:00
3:55 PM,63.0,23.0,22,29.97,10.0,SW,3.5,-,N/A,,Clear,230,2013-12-02 22:55:00
4:15 PM,62.8,22.6,22,29.96,10.0,SSW,4.6,-,N/A,,Clear,210,2013-12-02 23:15:00
4:35 PM,62.4,21.9,21,29.96,10.0,Calm,Calm,-,N/A,,Clear,0,2013-12-02 23:35:00
4:55 PM,59.9,22.1,23,29.95,10.0,SSE,4.6,-,N/A,,Clear,160,2013-12-02 23:55:00
5:15 PM,57.4,21.9,25,29.95,10.0,SE,5.8,-,N/A,,Clear,130,2013-12-03 00:15:00
5:35 PM,54.9,22.5,28,29.95,10.0,South,5.8,-,N/A,,Clear,180,2013-12-03 00:35:00
5:55 PM,58.5,15.3,18,29.95,10.0,Calm,Calm,-,N/A,,Clear,0,2013-12-03 00:55:00
6:15 PM,56.8,14.4,19,29.95,10.0,SW,6.9,-,N/A,,Clear,230,2013-12-03 01:15:00
6:35 PM,56.5,14.5,19,29.95,10.0,WSW,11.5,-,N/A,,Clear,250,2013-12-03 01:35:00
6:55 PM,55.9,15.4,20,29.95,10.0,West,13.8,-,N/A,,Clear,260,2013-12-03 01:55:00
7:15 PM,55.9,15.3,20,29.95,10.0,West,12.7,-,N/A,,Clear,260,2013-12-03 02:15:00
7:35 PM,56.5,14.2,19,29.95,10.0,West,16.1,25.3,N/A,,Clear,270,2013-12-03 02:35:00
7:55 PM,54.7,14.5,20,29.95,10.0,West,10.4,-,N/A,,Clear,280,2013-12-03 02:55:00
8:15 PM,54.5,14.4,20,29.95,10.0,WNW,11.5,-,N/A,,Clear,290,2013-12-03 03:15:00
8:35 PM,54.5,14.5,21,29.95,10.0,West,11.5,-,N/A,,Clear,280,2013-12-03 03:35:00
8:55 PM,54.1,14.9,21,29.95,10.0,WNW,11.5,-,N/A,,Clear,290,2013-12-03 03:55:00
9:15 PM,55.2,14.5,20,29.94,10.0,WNW,9.2,-,N/A,,Clear,290,2013-12-03 04:15:00
9:35 PM,54.7,14.7,21,29.94,10.0,West,16.1,-,N/A,,Clear,270,2013-12-03 04:35:00
9:55 PM,52.9,15.1,22,29.94,10.0,West,11.5,-,N/A,,Clear,270,2013-12-03 04:55:00
10:15 PM,52.3,15.4,23,29.94,10.0,West,11.5,-,N/A,,Clear,260,2013-12-03 05:15:00
10:35 PM,51.8,15.6,24,29.94,10.0,WNW,11.5,-,N/A,,Clear,290,2013-12-03 05:35:00
10:55 PM,51.3,16.2,25,29.94,10.0,West,17.3,-,N/A,,Clear,280,2013-12-03 05:55:00
11:15 PM,50.2,16.5,26,29.93,10.0,WNW,10.4,-,N/A,,Clear,290,2013-12-03 06:15:00
11:35 PM,49.3,16.5,27,29.93,10.0,West,13.8,-,N/A,,Clear,270,2013-12-03 06:35:00
11:55 PM,49.1,16.5,27,29.92,10.0,West,13.8,-,N/A,,Clear,260,2013-12-03 06:55:00